TimeEST,TemperatureF,Dew PointF,Humidity,Sea Level PressureIn,VisibilityMPH,Wind Direction,Wind SpeedMPH,Gust SpeedMPH,PrecipitationIn,Events,Conditions,WindDirDegrees,DateUTC
12:15 AM,21.2,5.0,50,30.14,10.0,West,4.6,-,N/A,,Clear,280,2013-02-02 05:15:00
12:35 AM,21.2,5.0,50,30.15,10.0,West,4.6,-,N/A,,Clear,280,2013-02-02 05:35:00
12:55 AM,21.2,5.0,50,30.16,10.0,West,3.5,-,N/A,,Clear,280,2013-02-02 05:55:00
1:15 AM,21.2,5.0,50,30.17,10.0,West,4.6,-,N/A,,Clear,260,2013-02-02 06:15:00
1:35 AM,21.2,6.8,54,30.17,10.0,West,4.6,-,N/A,,Clear,280,2013-02-02 06:35:00
2:15 AM,21.2,6.8,54,30.18,10.0,West,4.6,-,N/A,,Clear,280,2013-02-02 07:15:00
2:35 AM,21.2,6.8,54,30.18,10.0,West,5.8,-,N/A,,Clear,280,2013-02-02 07:35:00
2:55 AM,21.2,8.6,58,30.18,10.0,WNW,5.8,-,N/A,,Clear,290,2013-02-02 07:55:00
3:15 AM,21.2,8.6,58,30.19,10.0,WNW,4.6,-,N/A,,Clear,300,2013-02-02 08:15:00
3:35 AM,21.2,8.6,58,30.19,10.0,West,3.5,-,N/A,,Clear,280,2013-02-02 08:35:00
3:55 AM,21.2,8.6,58,30.20,10.0,West,4.6,-,N/A,,Clear,270,2013-02-02 08:55:00
4:15 AM,21.2,8.6,58,30.20,10.0,West,3.5,-,N/A,,Clear,280,2013-02-02 09:15:00
4:35 AM,21.2,8.6,58,30.21,10.0,West,3.5,-,N/A,,Clear,260,2013-02-02 09:35:00
4:55 AM,19.4,8.6,63,30.22,10.0,West,3.5,-,N/A,,Clear,270,2013-02-02 09:55:00
5:15 AM,19.4,8.6,63,30.22,10.0,WNW,3.5,-,N/A,,Clear,300,2013-02-02 10:15:00
5:35 AM,19.4,8.6,63,30.22,10.0,Calm,Calm,-,N/A,,Clear,0,2013-02-02 10:35:00
5:55 AM,17.6,10.4,73,30.22,10.0,Calm,Calm,-,N/A,,Clear,0,2013-02-02 10:55:00
6:15 AM,17.6,8.6,68,30.22,10.0,Calm,Calm,-,N/A,,Clear,0,2013-02-02 11:15:00
6:35 AM,17.6,10.4,73,30.23,10.0,WSW,3.5,-,N/A,,Clear,250,2013-02-02 11:35:00
6:55 AM,19.4,10.4,68,30.24,10.0,West,4.6,-,N/A,,Clear,260,2013-02-02 11:55:00
7:15 AM,21.2,10.4,63,30.24,10.0,WSW,3.5,-,N/A,,Clear,250,2013-02-02 12:15:00
7:35 AM,21.2,10.4,63,30.25,10.0,West,4.6,-,N/A,,Clear,280,2013-02-02 12:35:00
7:55 AM,23.0,10.4,59,30.25,10.0,WNW,5.8,-,N/A,,Clear,290,2013-02-02 12:55:00
8:15 AM,23.0,10.4,59,30.26,10.0,WSW,4.6,-,N/A,,Clear,240,2013-02-02 13:15:00
8:35 AM,24.8,10.4,54,30.25,10.0,West,8.1,-,N/A,,Clear,260,2013-02-02 13:35:00
8:55 AM,24.8,10.4,54,30.25,10.0,WNW,4.6,-,N/A,,Clear,300,2013-02-02 13:55:00
9:15 AM,26.6,10.4,51,30.24,10.0,NW,6.9,-,N/A,,Clear,310,2013-02-02 14:15:00
9:35 AM,26.6,8.6,47,30.24,10.0,Calm,Calm,-,N/A,,Clear,0,2013-02-02 14:35:00
9:55 AM,28.4,8.6,43,30.23,10.0,SSW,6.9,-,N/A,,Clear,200,2013-02-02 14:55:00
10:15 AM,28.4,8.6,43,30.23,10.0,WSW,6.9,-,N/A,,Clear,250,2013-02-02 15:15:00
10:35 AM,28.4,6.8,40,30.22,10.0,South,10.4,-,N/A,,Clear,190,2013-02-02 15:35:00
10:55 AM,28.4,8.6,43,30.21,10.0,SSW,9.2,-,N/A,,Clear,200,2013-02-02 15:55:00
11:15 AM,26.6,8.6,47,30.20,10.0,WSW,10.4,-,N/A,,Clear,240,2013-02-02 16:15:00
11:35 AM,28.4,8.6,43,30.19,10.0,SSW,10.4,16.1,N/A,,Clear,210,2013-02-02 16:35:00
11:55 AM,28.4,8.6,43,30.17,10.0,SW,8.1,-,N/A,,Partly Cloudy,220,2013-02-02 16:55:00
12:15 PM,28.4,8.6,43,30.16,10.0,South,13.8,21.9,N/A,,Partly Cloudy,190,2013-02-02 17:15:00
12:35 PM,28.4,10.4,47,30.14,10.0,SSW,11.5,16.1,N/A,,Clear,210,2013-02-02 17:35:00
12:55 PM,30.2,8.6,40,30.14,10.0,WSW,8.1,-,N/A,,Clear,240,2013-02-02 17:55:00
1:15 PM,30.2,8.6,40,30.13,10.0,SW,8.1,17.3,N/A,,Clear,230,2013-02-02 18:15:00
1:35 PM,30.2,6.8,37,30.12,10.0,SW,10.4,21.9,N/A,,Partly Cloudy,230,2013-02-02 18:35:00
1:55 PM,30.2,8.6,40,30.11,10.0,SSW,13.8,18.4,N/A,,Scattered Clouds,200,2013-02-02 18:55:00
2:15 PM,30.2,10.4,44,30.11,10.0,SW,13.8,19.6,N/A,,Partly Cloudy,230,2013-02-02 19:15:00
2:35 PM,30.2,10.4,44,30.10,10.0,South,10.4,16.1,N/A,,Clear,190,2013-02-02 19:35:00
2:55 PM,30.2,8.6,40,30.09,10.0,WSW,10.4,-,N/A,,Clear,240,2013-02-02 19:55:00
3:15 PM,30.2,10.4,44,30.09,10.0,SSW,10.4,20.7,N/A,,Clear,210,2013-02-02 20:15:00
3:35 PM,28.4,10.4,47,30.09,10.0,SW,8.1,18.4,N/A,,Clear,230,2013-02-02 20:35:00
3:55 PM,28.4,10.4,47,30.08,10.0,SW,9.2,-,N/A,,Partly Cloudy,230,2013-02-02 20:55:00
4:15 PM,28.4,10.4,47,30.08,10.0,SW,10.4,18.4,N/A,,Clear,230,2013-02-02 21:15:00
4:35 PM,28.4,10.4,47,30.08,10.0,WSW,6.9,-,N/A,,Clear,240,2013-02-02 21:35:00
4:55 PM,28.4,10.4,47,30.07,10.0,SW,9.2,16.1,N/A,,Clear,230,2013-02-02 21:55:00
5:15 PM,28.4,10.4,47,30.07,10.0,SSW,8.1,-,N/A,,Clear,210,2013-02-02 22:15:00
5:35 PM,28.4,12.2,51,30.07,10.0,SW,6.9,-,N/A,,Clear,220,2013-02-02 22:35:00
5:55 PM,28.4,10.4,47,30.06,10.0,SW,9.2,-,N/A,,Clear,220,2013-02-02 22:55:00
6:15 PM,30.2,8.6,40,30.06,10.0,SW,8.1,16.1,N/A,,Clear,230,2013-02-02 23:15:00
6:35 PM,30.2,8.6,40,30.06,10.0,SW,11.5,17.3,N/A,,Clear,230,2013-02-02 23:35:00
6:55 PM,30.2,8.6,40,30.05,10.0,WSW,6.9,-,N/A,,Clear,240,2013-02-02 23:55:00
7:15 PM,30.2,8.6,40,30.05,10.0,WSW,5.8,-,N/A,,Clear,240,2013-02-03 00:15:00
7:55 PM,30.2,10.4,44,30.05,10.0,WSW,6.9,-,N/A,,Clear,250,2013-02-03 00:55:00
8:15 PM,30.2,10.4,44,30.05,10.0,WSW,8.1,16.1,N/A,,Clear,240,2013-02-03 01:15:00
8:35 PM,30.2,12.2,47,30.05,10.0,West,4.6,-,N/A,,Clear,260,2013-02-03 01:35:00
8:55 PM,28.4,12.2,51,30.06,10.0,WNW,6.9,-,N/A,,Scattered Clouds,290,2013-02-03 01:55:00
9:15 PM,28.4,14.0,55,30.06,10.0,West,4.6,-,N/A,,Mostly Cloudy,270,2013-02-03 02:15:00
9:35 PM,28.4,15.8,59,30.06,7.0,WNW,6.9,-,N/A,Snow,Light Snow,290,2013-02-03 02:35:00
9:55 PM,26.6,17.6,69,30.06,5.0,NW,8.1,-,N/A,Snow,Light Snow,310,2013-02-03 02:55:00
10:15 PM,26.6,17.6,69,30.07,6.0,WNW,3.5,-,N/A,Snow,Light Snow,290,2013-02-03 03:15:00
10:35 PM,26.6,19.4,74,30.07,3.0,West,3.5,-,0.05,Snow,Light Snow,280,2013-02-03 03:35:00
10:55 PM,24.8,21.2,86,30.06,5.0,WNW,5.8,-,0.06,Snow,Light Snow,300,2013-02-03 03:55:00
11:15 PM,24.8,21.2,86,30.05,5.0,WNW,4.6,-,N/A,Snow,Light Snow,290,2013-02-03 04:15:00
11:35 PM,24.8,21.2,86,30.05,7.0,NW,3.5,-,N/A,Snow,Light Snow,310,2013-02-03 04:35:00
11:55 PM,24.8,21.2,86,30.04,9.0,Calm,Calm,-,0.01,Snow,Light Snow,0,2013-02-03 04:55:00